Main page
METAR-TAF:

METAR-TAF

Airports :

United States Naval Academy

Annapolis, Maryland, United States

latitude: 38-59-29N, longitude: 076-29-00W, elevation: 7 ft

Current weather observation

The report was made 25 minutes ago, at 21:54 UTC
Wind 7 mph from the Northwest
Temperature 54°F
Humidity 50%
Pressure 29.79 in. Hg
Visibility: 10 miles
Few clouds at a height of 4900 ft
Broken clouds at a height of 7500 ft

METAR: KNAK 012154Z AUTO 32006KT 10SM FEW049 BKN075 12/02 A2979 RMK AO2 SLP089 T01220022

Time: 18:19 (22:19 UTC)


TAF: missing

Weather observations and forecasts of more than 4000 airports (METAR and TAF reports).

The available stations are represented by yellow and red dots on the map.

Hover mouse over dot to see the name of the station.

Then click to see weather observations and forecasts.

To change the map : click on the green buttons with a black cross to zoom in, on the green button with a dash to zoom out, or on the green arrows for adjacent maps.


METAR-TAF: